Time;durP1;ratioP1;P1;durP2;ratioP2;P2;SDS_P1;SDS_P2;PMS_P1;PMS_P2;Temp;Humidity;BMP_temperature;BMP_pressure;BME280_temperature;BME280_humidity;BME280_pressure;Samples;Min_cycle;Max_cycle;Signal;HPM_P1;HPM_P2
2023/12/06 00:00:30;;;;;;;1999.90;999.90;;;4.00;99.90;;;;;;5094923;28;20170;-76
2023/12/06 00:02:56;;;;;;;1999.90;999.90;;;4.00;99.90;;;;;;5076648;28;20039;-76
2023/12/06 00:05:21;;;;;;;1999.90;999.90;;;4.00;99.90;;;;;;5095022;28;20032;-76
2023/12/06 00:07:47;;;;;;;1999.90;999.90;;;4.00;99.90;;;;;;5094693;28;20052;-76
2023/12/06 00:10:12;;;;;;;1999.90;999.90;;;4.00;99.90;;;;;;5076517;28;20028;-76
2023/12/06 00:12:38;;;;;;;1999.90;999.90;;;4.00;99.90;;;;;;5095037;28;20036;-76
2023/12/06 00:15:04;;;;;;;1999.90;999.90;;;4.00;99.90;;;;;;5076329;28;20099;-76
2023/12/06 00:17:29;;;;;;;1999.90;999.90;;;4.00;99.90;;;;;;5076173;28;20033;-76
2023/12/06 00:19:55;;;;;;;1999.90;999.90;;;4.00;99.90;;;;;;5094766;28;20407;-75
2023/12/06 00:22:20;;;;;;;1999.90;999.90;;;4.00;99.90;;;;;;5094908;28;20036;-76
2023/12/06 00:24:46;;;;;;;1999.90;999.90;;;4.00;99.90;;;;;;5094746;28;20036;-75
2023/12/06 00:27:11;;;;;;;1999.90;999.90;;;4.10;99.90;;;;;;5076146;28;20048;-76
2023/12/06 00:29:37;;;;;;;1999.90;999.90;;;4.00;99.90;;;;;;5094822;28;20058;-76
2023/12/06 00:32:03;;;;;;;1999.90;999.90;;;4.10;99.90;;;;;;5094441;28;20029;-76
2023/12/06 00:34:28;;;;;;;1999.90;999.90;;;4.10;99.90;;;;;;5094706;28;20469;-76
2023/12/06 00:36:54;;;;;;;1999.90;999.90;;;4.00;99.90;;;;;;5094146;28;20082;-76
2023/12/06 00:39:20;;;;;;;1999.90;999.90;;;4.10;99.90;;;;;;5076262;28;20502;-76
2023/12/06 00:41:45;;;;;;;1999.90;999.90;;;4.10;99.90;;;;;;5094649;28;20104;-76
2023/12/06 00:44:11;;;;;;;1999.90;999.90;;;4.10;99.90;;;;;;5094798;28;20079;-75
2023/12/06 00:46:36;;;;;;;1999.90;999.90;;;4.10;99.90;;;;;;5093911;28;20068;-76
2023/12/06 00:49:03;;;;;;;1999.90;999.90;;;4.10;99.90;;;;;;5094514;28;20040;-76
2023/12/06 00:51:29;;;;;;;1999.90;999.90;;;4.10;99.90;;;;;;5094500;28;20028;-75
2023/12/06 00:53:54;;;;;;;1999.90;999.90;;;4.10;99.90;;;;;;5094578;28;20158;-76
2023/12/06 00:56:20;;;;;;;1999.90;999.90;;;4.10;99.90;;;;;;5093975;28;20067;-76
2023/12/06 00:58:45;;;;;;;1999.90;999.90;;;4.10;99.90;;;;;;5075925;28;20037;-76
2023/12/06 01:01:12;;;;;;;1999.90;999.90;;;4.20;99.90;;;;;;5095175;28;20020;-76
2023/12/06 01:03:40;;;;;;;1999.90;999.90;;;4.10;99.90;;;;;;5097923;28;20033;-76
2023/12/06 01:06:06;;;;;;;1999.90;999.90;;;4.10;99.90;;;;;;5097430;28;20482;-76
2023/12/06 01:08:32;;;;;;;1999.90;999.90;;;4.20;99.90;;;;;;5097513;28;20047;-76
2023/12/06 01:10:57;;;;;;;1999.90;999.90;;;4.20;99.90;;;;;;5079176;28;20039;-76
2023/12/06 01:13:23;;;;;;;1999.90;999.90;;;4.20;99.90;;;;;;5097766;28;20033;-76
2023/12/06 01:15:49;;;;;;;1999.90;999.90;;;4.20;99.90;;;;;;5097213;28;20040;-76
2023/12/06 01:18:14;;;;;;;1999.90;999.90;;;4.20;99.90;;;;;;5097671;28;20032;-76
2023/12/06 01:20:40;;;;;;;1999.90;999.90;;;4.30;99.90;;;;;;5097632;28;20378;-76
2023/12/06 01:23:07;;;;;;;1999.90;999.90;;;4.30;99.90;;;;;;5097594;28;20039;-76
2023/12/06 01:25:33;;;;;;;1999.90;999.90;;;4.20;99.90;;;;;;5097258;28;20436;-76
2023/12/06 01:27:59;;;;;;;1999.90;999.90;;;4.20;99.90;;;;;;5078690;28;20036;-76
2023/12/06 01:30:24;;;;;;;1999.90;999.90;;;4.30;99.90;;;;;;5097447;28;20074;-76
2023/12/06 01:32:50;;;;;;;1999.90;999.90;;;4.30;99.90;;;;;;5097137;28;20036;-76
2023/12/06 01:35:15;;;;;;;1999.90;999.90;;;4.30;99.90;;;;;;5097393;28;20486;-76
2023/12/06 01:37:41;;;;;;;1999.90;999.90;;;4.20;99.90;;;;;;5096828;28;20140;-76
2023/12/06 01:40:08;;;;;;;1999.90;999.90;;;4.30;99.90;;;;;;5097460;28;20478;-76
2023/12/06 01:42:34;;;;;;;1999.90;999.90;;;4.30;99.90;;;;;;5097255;28;20086;-76
2023/12/06 01:45:00;;;;;;;1999.90;999.90;;;4.30;99.90;;;;;;5097138;28;20089;-76
2023/12/06 01:47:27;;;;;;;1999.90;999.90;;;4.30;99.90;;;;;;5097041;28;20043;-76
2023/12/06 01:49:56;;;;;;;1999.90;999.90;;;4.30;99.90;;;;;;5097207;28;20540;-76
2023/12/06 01:52:22;;;;;;;1999.90;999.90;;;4.30;99.90;;;;;;5097127;28;20101;-76
2023/12/06 01:54:48;;;;;;;1999.90;999.90;;;4.30;99.90;;;;;;5096929;28;20075;-77
2023/12/06 01:57:14;;;;;;;1999.90;999.90;;;4.30;99.90;;;;;;5078210;28;20123;-76
2023/12/06 01:59:40;;;;;;;1999.90;999.90;;;4.40;99.90;;;;;;5096565;28;20037;-76
2023/12/06 02:02:06;;;;;;;1999.90;999.90;;;4.40;99.90;;;;;;5097058;28;20028;-76
2023/12/06 02:04:33;;;;;;;1999.90;999.90;;;4.40;99.90;;;;;;5095826;28;20033;-76
2023/12/06 02:06:59;;;;;;;1999.90;999.90;;;4.40;99.90;;;;;;5096325;28;20054;-76
2023/12/06 02:09:26;;;;;;;1999.90;999.90;;;4.40;99.90;;;;;;5096825;28;20035;-76
2023/12/06 02:11:52;;;;;;;1999.90;999.90;;;4.40;99.90;;;;;;5096722;28;20055;-76
2023/12/06 02:14:17;;;;;;;1999.90;999.90;;;4.40;99.90;;;;;;5077766;28;20048;-76
2023/12/06 02:16:43;;;;;;;1999.90;999.90;;;4.40;99.90;;;;;;5096331;28;20513;-76
2023/12/06 02:19:15;;;;;;;1999.90;999.90;;;4.40;99.90;;;;;;5078273;28;20515;-76
2023/12/06 02:21:41;;;;;;;1999.90;999.90;;;4.40;99.90;;;;;;5096910;28;20029;-76
2023/12/06 02:24:06;;;;;;;1999.90;999.90;;;4.40;99.90;;;;;;5096464;28;20040;-76
2023/12/06 02:26:32;;;;;;;1999.90;999.90;;;4.40;99.90;;;;;;5077629;28;20028;-77
2023/12/06 02:28:58;;;;;;;1999.90;999.90;;;4.40;99.90;;;;;;5096211;28;20048;-76
2023/12/06 02:31:23;;;;;;;1999.90;999.90;;;4.40;99.90;;;;;;5096596;28;20032;-76
2023/12/06 02:33:51;;;;;;;1999.90;999.90;;;4.40;99.90;;;;;;5078063;28;20036;-76
2023/12/06 02:36:19;;;;;;;1999.90;999.90;;;4.40;99.90;;;;;;5095798;28;20052;-76
2023/12/06 02:38:46;;;;;;;1999.90;999.90;;;4.40;99.90;;;;;;5096330;28;20086;-76
2023/12/06 02:41:13;;;;;;;1999.90;999.90;;;4.40;99.90;;;;;;5096439;28;20171;-76
2023/12/06 02:43:39;;;;;;;1999.90;999.90;;;4.40;99.90;;;;;;5096102;28;20511;-76
2023/12/06 02:46:06;;;;;;;1999.90;999.90;;;4.40;99.90;;;;;;5095466;28;20036;-76
2023/12/06 02:48:32;;;;;;;1999.90;999.90;;;4.40;99.90;;;;;;5096054;28;20386;-76
2023/12/06 02:50:58;;;;;;;1999.90;999.90;;;4.40;99.90;;;;;;5096250;28;20036;-76
2023/12/06 02:53:23;;;;;;;1999.90;999.90;;;4.40;99.90;;;;;;5096159;28;20068;-76
2023/12/06 02:55:49;;;;;;;1999.90;999.90;;;4.40;99.90;;;;;;5095167;28;20033;-76
2023/12/06 02:58:15;;;;;;;1999.90;999.90;;;4.40;99.90;;;;;;5096111;28;20387;-76
2023/12/06 03:00:40;;;;;;;1999.90;999.90;;;4.40;99.90;;;;;;5096036;28;20037;-76
2023/12/06 03:03:06;;;;;;;1999.90;999.90;;;4.50;99.90;;;;;;5077568;28;20032;-76
2023/12/06 03:05:31;;;;;;;1999.90;999.90;;;4.40;99.90;;;;;;5077293;28;20470;-76
2023/12/06 03:07:57;;;;;;;1999.90;999.90;;;4.50;99.90;;;;;;5077155;28;20181;-76
2023/12/06 03:10:22;;;;;;;1999.90;999.90;;;4.50;99.90;;;;;;5095973;28;20132;-76
2023/12/06 03:12:48;;;;;;;1999.90;999.90;;;4.50;99.90;;;;;;5095798;28;20527;-76
2023/12/06 03:15:13;;;;;;;1999.90;999.90;;;4.50;99.90;;;;;;5095367;28;20536;-76
2023/12/06 03:17:39;;;;;;;1999.90;999.90;;;4.50;99.90;;;;;;5095560;28;20474;-76
2023/12/06 03:20:06;;;;;;;1999.90;999.90;;;4.50;99.90;;;;;;5095629;28;20478;-76
2023/12/06 03:22:32;;;;;;;1999.90;999.90;;;4.50;99.90;;;;;;5095717;28;20178;-75
2023/12/06 03:24:58;;;;;;;1999.90;999.90;;;4.50;99.90;;;;;;5094279;28;20107;-76
2023/12/06 03:27:23;;;;;;;1999.90;999.90;;;4.50;99.90;;;;;;5077146;28;20513;-76
2023/12/06 03:29:49;;;;;;;1999.90;999.90;;;4.50;99.90;;;;;;5077155;28;20037;-76
2023/12/06 03:32:15;;;;;;;1999.90;999.90;;;4.50;99.90;;;;;;5095619;28;20032;-76
2023/12/06 03:34:40;;;;;;;1999.90;999.90;;;4.50;99.90;;;;;;5095517;28;20086;-76
2023/12/06 03:37:06;;;;;;;1999.90;999.90;;;4.50;99.90;;;;;;5076702;28;20025;-76
2023/12/06 03:39:32;;;;;;;1999.90;999.90;;;4.50;99.90;;;;;;5095522;28;20428;-77
2023/12/06 03:41:59;;;;;;;1999.90;999.90;;;4.40;99.90;;;;;;5095359;28;20033;-77
2023/12/06 03:44:25;;;;;;;1999.90;999.90;;;4.50;99.90;;;;;;5095406;28;20036;-76
2023/12/06 03:46:50;;;;;;;1999.90;999.90;;;4.50;99.90;;;;;;5094958;28;20075;-76
2023/12/06 03:49:16;;;;;;;1999.90;999.90;;;4.50;99.90;;;;;;5094822;28;20045;-76
2023/12/06 03:51:42;;;;;;;1999.90;999.90;;;4.50;99.90;;;;;;5095291;28;20037;-76
2023/12/06 03:54:07;;;;;;;1999.90;999.90;;;4.50;99.90;;;;;;5076806;28;20044;-76
2023/12/06 03:56:33;;;;;;;1999.90;999.90;;;4.50;99.90;;;;;;5094303;28;20122;-76
2023/12/06 03:58:59;;;;;;;1999.90;999.90;;;4.50;99.90;;;;;;5095406;28;20032;-76
2023/12/06 04:01:24;;;;;;;1999.90;999.90;;;4.50;99.90;;;;;;5095243;28;20098;-76
2023/12/06 04:03:50;;;;;;;1999.90;999.90;;;4.50;99.90;;;;;;5076679;28;20044;-76
2023/12/06 04:06:15;;;;;;;1999.90;999.90;;;4.50;99.90;;;;;;5094794;28;20036;-76
2023/12/06 04:08:41;;;;;;;1999.90;999.90;;;4.50;99.90;;;;;;5094872;28;20033;-76
2023/12/06 04:11:07;;;;;;;1999.90;999.90;;;4.50;99.90;;;;;;5095024;28;20032;-76
2023/12/06 04:13:32;;;;;;;1999.90;999.90;;;4.50;99.90;;;;;;5076433;28;20032;-76
2023/12/06 04:15:58;;;;;;;1999.90;999.90;;;4.50;99.90;;;;;;5094445;28;20032;-76
2023/12/06 04:18:23;;;;;;;1999.90;999.90;;;4.50;99.90;;;;;;5094918;28;20036;-76
2023/12/06 04:20:49;;;;;;;1999.90;999.90;;;4.50;99.90;;;;;;5094592;28;20036;-76
2023/12/06 04:23:14;;;;;;;1999.90;999.90;;;4.50;99.90;;;;;;5094918;28;20036;-76
2023/12/06 04:25:40;;;;;;;1999.90;999.90;;;4.50;99.90;;;;;;5094072;28;20037;-76
2023/12/06 04:28:05;;;;;;;1999.90;999.90;;;4.50;99.90;;;;;;5094431;28;20033;-76
2023/12/06 04:30:31;;;;;;;1999.90;999.90;;;4.50;99.90;;;;;;5076300;28;20508;-76
2023/12/06 04:32:57;;;;;;;1999.90;999.90;;;4.50;99.90;;;;;;5094724;28;20039;-76
2023/12/06 04:35:22;;;;;;;1999.90;999.90;;;4.50;99.90;;;;;;5094555;28;20037;-76
2023/12/06 04:37:48;;;;;;;1999.90;999.90;;;4.50;99.90;;;;;;5097570;28;20033;-76
2023/12/06 04:40:13;;;;;;;1999.90;999.90;;;4.50;99.90;;;;;;5079854;28;20116;-75
2023/12/06 04:42:39;;;;;;;1999.90;999.90;;;4.50;99.90;;;;;;5098205;28;20041;-76
2023/12/06 04:45:05;;;;;;;1999.90;999.90;;;4.50;99.90;;;;;;5097983;28;20040;-76
2023/12/06 04:47:30;;;;;;;1999.90;999.90;;;4.50;99.90;;;;;;5079406;28;20044;-76
2023/12/06 04:49:56;;;;;;;1999.90;999.90;;;4.60;99.90;;;;;;5079738;28;20082;-76
2023/12/06 04:52:22;;;;;;;1999.90;999.90;;;4.60;99.90;;;;;;5079657;28;20036;-76
2023/12/06 04:54:48;;;;;;;1999.90;999.90;;;4.60;99.90;;;;;;5097926;28;20801;-76
2023/12/06 04:57:14;;;;;;;1999.90;999.90;;;4.60;99.90;;;;;;5097559;28;20045;-75
2023/12/06 04:59:39;;;;;;;1999.90;999.90;;;4.60;99.90;;;;;;5097984;28;20037;-75
2023/12/06 05:02:05;;;;;;;1999.90;999.90;;;4.60;99.90;;;;;;5097883;28;20382;-76
2023/12/06 05:04:31;;;;;;;1999.90;999.90;;;4.70;99.90;;;;;;5097789;28;20029;-76
2023/12/06 05:06:56;;;;;;;1999.90;999.90;;;4.60;99.90;;;;;;5097258;28;20394;-76
2023/12/06 05:09:22;;;;;;;1999.90;999.90;;;4.70;99.90;;;;;;5097711;28;20651;-76
2023/12/06 05:11:47;;;;;;;1999.90;999.90;;;4.70;99.90;;;;;;5079332;28;20040;-76
2023/12/06 05:14:13;;;;;;;1999.90;999.90;;;4.60;99.90;;;;;;5097765;28;20034;-76
2023/12/06 05:16:39;;;;;;;1999.90;999.90;;;4.60;99.90;;;;;;5097219;28;20021;-75
2023/12/06 05:19:06;;;;;;;1999.90;999.90;;;4.70;99.90;;;;;;5097655;28;20036;-75
2023/12/06 05:21:32;;;;;;;1999.90;999.90;;;4.70;99.90;;;;;;5096898;28;20540;-75
2023/12/06 05:23:57;;;;;;;1999.90;999.90;;;4.70;99.90;;;;;;5113032;28;20040;-74
2023/12/06 05:26:25;;;;;;;1999.90;999.90;;;4.70;99.90;;;;;;5098119;28;20115;-76
2023/12/06 05:28:52;;;;;;;1999.90;999.90;;;4.70;99.90;;;;;;5113191;28;20135;-75
2023/12/06 05:31:17;;;;;;;1999.90;999.90;;;4.70;99.90;;;;;;5097275;28;20036;-75
2023/12/06 05:33:43;;;;;;;1999.90;999.90;;;4.70;99.90;;;;;;5097324;28;20029;-76
2023/12/06 05:36:09;;;;;;;1999.90;999.90;;;4.70;99.90;;;;;;5078468;28;20524;-76
2023/12/06 05:38:34;;;;;;;1999.90;999.90;;;4.70;99.90;;;;;;5096582;28;20048;-75
2023/12/06 05:41:00;;;;;;;1999.90;999.90;;;4.70;99.90;;;;;;5096319;28;20040;-75
2023/12/06 05:43:27;;;;;;;1999.90;999.90;;;4.70;99.90;;;;;;5078775;28;20032;-75
2023/12/06 05:45:54;;;;;;;1999.90;999.90;;;4.70;99.90;;;;;;5078433;28;20032;-75
2023/12/06 05:48:20;;;;;;;1999.90;999.90;;;4.70;99.90;;;;;;5096358;28;20086;-73
2023/12/06 05:50:45;;;;;;;1999.90;999.90;;;4.70;99.90;;;;;;5097198;28;20485;-73
2023/12/06 05:53:12;;;;;;;1999.90;999.90;;;4.70;99.90;;;;;;5112778;28;20477;-73
2023/12/06 05:55:38;;;;;;;1999.90;999.90;;;4.70;99.90;;;;;;5111392;22;20013;-75
2023/12/06 05:58:05;;;;;;;1999.90;999.90;;;4.70;99.90;;;;;;5095196;28;20459;-74
2023/12/06 06:00:31;;;;;;;1999.90;999.90;;;4.70;99.90;;;;;;5097014;28;20078;-73
2023/12/06 06:02:58;;;;;;;1999.90;999.90;;;4.70;99.90;;;;;;5097118;28;20032;-73
2023/12/06 06:05:24;;;;;;;1999.90;999.90;;;4.70;99.90;;;;;;5096036;28;20056;-74
2023/12/06 06:07:49;;;;;;;1999.90;999.90;;;4.70;99.90;;;;;;5094480;28;20175;-74
2023/12/06 06:10:15;;;;;;;1999.90;999.90;;;4.70;99.90;;;;;;5097041;28;20032;-75
2023/12/06 06:12:40;;;;;;;1999.90;999.90;;;4.70;99.90;;;;;;5096915;28;20401;-73
2023/12/06 06:15:08;;;;;;;1999.90;999.90;;;4.70;99.90;;;;;;5096888;28;20406;-73
2023/12/06 06:17:34;;;;;;;1999.90;999.90;;;4.70;99.90;;;;;;5096467;28;20624;-73
2023/12/06 06:19:59;;;;;;;1999.90;999.90;;;4.70;99.90;;;;;;5091665;28;20033;-73
2023/12/06 06:22:25;;;;;;;1999.90;999.90;;;4.80;99.90;;;;;;5095924;28;20470;-73
2023/12/06 06:24:51;;;;;;;1999.90;999.90;;;4.80;99.90;;;;;;5096639;28;20474;-73
2023/12/06 06:27:16;;;;;;;1999.90;999.90;;;4.80;99.90;;;;;;5096059;28;20036;-73
2023/12/06 06:29:44;;;;;;;1999.90;999.90;;;4.80;99.90;;;;;;5096724;28;20047;-73
2023/12/06 06:32:09;;;;;;;1999.90;999.90;;;4.80;99.90;;;;;;5096501;28;20024;-76
2023/12/06 06:34:35;;;;;;;1999.90;999.90;;;4.80;99.90;;;;;;5096565;28;20744;-72
2023/12/06 06:37:01;;;;;;;1999.90;999.90;;;4.80;99.90;;;;;;5093724;28;20033;-73
2023/12/06 06:39:28;;;;;;;1999.90;999.90;;;4.80;99.90;;;;;;5096026;28;20040;-73
2023/12/06 06:41:54;;;;;;;1999.90;999.90;;;4.80;99.90;;;;;;5096227;28;20028;-72
2023/12/06 06:44:19;;;;;;;1999.90;999.90;;;4.80;99.90;;;;;;5096430;28;20094;-74
2023/12/06 06:46:45;;;;;;;1999.90;999.90;;;4.80;99.90;;;;;;5094312;28;20032;-74
2023/12/06 06:49:11;;;;;;;1999.90;999.90;;;4.80;99.90;;;;;;5096294;28;20056;-73
2023/12/06 06:51:37;;;;;;;1999.90;999.90;;;4.80;99.90;;;;;;5096466;28;20031;-74
2023/12/06 06:54:04;;;;;;;1999.90;999.90;;;4.80;99.90;;;;;;5096401;28;20037;-75
2023/12/06 06:56:29;;;;;;;1999.90;999.90;;;4.80;99.90;;;;;;5093901;28;20119;-72
2023/12/06 06:58:55;;;;;;;1999.90;999.90;;;4.90;99.90;;;;;;5095930;28;20025;-72
2023/12/06 07:01:21;;;;;;;1999.90;999.90;;;4.80;99.90;;;;;;5084967;28;20103;-72
2023/12/06 07:03:46;;;;;;;1999.90;999.90;;;4.80;99.90;;;;;;5075701;28;20136;-71
2023/12/06 07:06:12;;;;;;;1999.90;999.90;;;4.80;99.90;;;;;;5075365;28;20424;-73
2023/12/06 07:08:38;;;;;;;1999.90;999.90;;;4.80;99.90;;;;;;5079391;28;20079;-72
2023/12/06 07:11:04;;;;;;;1999.90;999.90;;;4.90;99.90;;;;;;5095612;28;20036;-71
2023/12/06 07:13:30;;;;;;;1999.90;999.90;;;4.90;99.90;;;;;;5093274;28;20079;-71
2023/12/06 07:15:56;;;;;;;1999.90;999.90;;;4.90;99.90;;;;;;5079265;28;20119;-72
2023/12/06 07:18:21;;;;;;;1999.90;999.90;;;4.80;99.90;;;;;;5094349;28;20554;-73
2023/12/06 07:20:48;;;;;;;1999.90;999.90;;;4.90;99.90;;;;;;5085223;28;20493;-74
2023/12/06 07:23:14;;;;;;;1999.90;999.90;;;4.90;99.90;;;;;;5095359;28;20401;-74
2023/12/06 07:25:39;;;;;;;1999.90;999.90;;;4.80;99.90;;;;;;5095087;28;20037;-78
2023/12/06 07:28:05;;;;;;;1999.90;999.90;;;4.80;99.90;;;;;;5095357;28;20036;-72
2023/12/06 07:30:31;;;;;;;1999.90;999.90;;;4.80;99.90;;;;;;5094556;28;20032;-73
2023/12/06 07:32:56;;;;;;;1999.90;999.90;;;4.80;99.90;;;;;;5095464;28;20032;-73
2023/12/06 07:35:22;;;;;;;1999.90;999.90;;;4.90;99.90;;;;;;5095399;28;20037;-75
2023/12/06 07:37:48;;;;;;;1999.90;999.90;;;4.90;99.90;;;;;;5088005;28;20047;-73
2023/12/06 07:40:13;;;;;;;1999.90;999.90;;;4.90;99.90;;;;;;5095192;28;20475;-74
2023/12/06 07:42:39;;;;;;;1999.90;999.90;;;4.90;99.90;;;;;;5080524;28;20048;-76
2023/12/06 07:45:05;;;;;;;1999.90;999.90;;;4.90;99.90;;;;;;5073703;28;20037;-77
2023/12/06 07:47:31;;;;;;;1999.90;999.90;;;4.90;99.90;;;;;;5073171;28;20033;-77
2023/12/06 07:49:56;;;;;;;1999.90;999.90;;;4.90;99.90;;;;;;5075131;28;20539;-72
2023/12/06 07:52:22;;;;;;;1999.90;999.90;;;4.80;99.90;;;;;;5073471;28;20429;-74
2023/12/06 07:54:48;;;;;;;1999.90;999.90;;;4.80;99.90;;;;;;5075098;28;20405;-73
2023/12/06 07:57:13;;;;;;;1999.90;999.90;;;4.80;99.90;;;;;;5078966;28;20064;-74
2023/12/06 07:59:40;;;;;;;1999.90;999.90;;;4.80;99.90;;;;;;5095428;28;20045;-73
2023/12/06 08:02:06;;;;;;;1999.90;999.90;;;4.80;99.90;;;;;;5082232;28;20454;-74
2023/12/06 08:04:31;;;;;;;1999.90;999.90;;;4.80;99.90;;;;;;5082950;28;20080;-74
2023/12/06 08:06:57;;;;;;;1999.90;999.90;;;4.80;99.90;;;;;;5094592;28;20546;-74
2023/12/06 08:09:23;;;;;;;1999.90;999.90;;;4.70;99.90;;;;;;5094852;28;20557;-73
2023/12/06 08:11:48;;;;;;;1999.90;999.90;;;4.70;99.90;;;;;;5094381;28;20527;-74
2023/12/06 08:14:14;;;;;;;1999.90;999.90;;;4.70;99.90;;;;;;5095237;28;20040;-74
2023/12/06 08:16:39;;;;;;;1999.90;999.90;;;4.80;99.90;;;;;;5093259;28;20071;-74
2023/12/06 08:19:05;;;;;;;1999.90;999.90;;;4.70;99.90;;;;;;5095140;28;20047;-73
2023/12/06 08:21:31;;;;;;;1999.90;999.90;;;4.70;99.90;;;;;;5095655;28;20036;-80
2023/12/06 08:23:56;;;;;;;1999.90;999.90;;;4.70;99.90;;;;;;5085038;28;20075;-77
2023/12/06 08:26:22;;;;;;;1999.90;999.90;;;4.70;99.90;;;;;;5084202;28;20033;-75
2023/12/06 08:28:47;;;;;;;1999.90;999.90;;;4.60;99.90;;;;;;5095607;28;20047;-76
2023/12/06 08:31:13;;;;;;;1999.90;999.90;;;4.60;99.90;;;;;;5094907;28;20170;-75
2023/12/06 08:33:39;;;;;;;1999.90;999.90;;;4.60;99.90;;;;;;5093461;28;20552;-74
2023/12/06 08:36:05;;;;;;;1999.90;999.90;;;4.50;99.90;;;;;;5094493;28;20024;-75
2023/12/06 08:38:30;;;;;;;1999.90;999.90;;;4.40;99.90;;;;;;5094911;28;20033;-75
2023/12/06 08:40:56;;;;;;;1999.90;999.90;;;4.40;99.90;;;;;;5094774;28;20025;-75
2023/12/06 08:43:21;;;;;;;1999.90;999.90;;;4.30;99.90;;;;;;5095789;28;20032;-75
2023/12/06 08:45:47;;;;;;;1999.90;999.90;;;4.30;99.90;;;;;;5078494;28;20033;-80
2023/12/06 08:48:12;;;;;;;1999.90;999.90;;;4.20;99.90;;;;;;5085951;28;20482;-77
2023/12/06 08:50:38;;;;;;;1999.90;999.90;;;4.20;99.90;;;;;;5094606;28;20029;-77
2023/12/06 08:53:04;;;;;;;1999.90;999.90;;;4.20;99.90;;;;;;5093104;28;20552;-77
2023/12/06 08:55:29;;;;;;;1999.90;999.90;;;4.20;99.90;;;;;;5092820;28;20119;-77
2023/12/06 08:57:55;;;;;;;1999.90;999.90;;;4.10;99.90;;;;;;5094116;28;20045;-76
2023/12/06 09:00:20;;;;;;;1999.90;999.90;;;4.10;99.90;;;;;;5094103;28;20032;-78
2023/12/06 09:02:46;;;;;;;1999.90;999.90;;;4.00;99.90;;;;;;5094513;28;20052;-76
2023/12/06 09:05:11;;;;;;;1999.90;999.90;;;4.00;99.90;;;;;;5094348;28;20039;-77
2023/12/06 09:07:38;;;;;;;1999.90;999.90;;;3.90;99.90;;;;;;5092440;28;20375;-77
2023/12/06 09:10:04;;;;;;;1999.90;999.90;;;3.80;99.90;;;;;;5094347;28;20033;-76
2023/12/06 09:12:31;;;;;;;1999.90;999.90;;;3.80;99.90;;;;;;5094248;28;20029;-75
2023/12/06 09:14:56;;;;;;;1999.90;999.90;;;3.70;99.90;;;;;;5094273;28;20043;-77
2023/12/06 09:17:22;;;;;;;1999.90;999.90;;;3.70;99.90;;;;;;5093747;28;20031;-76
2023/12/06 09:19:48;;;;;;;1999.90;999.90;;;3.70;99.90;;;;;;5092570;28;20037;-77
2023/12/06 09:22:15;;;;;;;1999.90;999.90;;;3.70;99.90;;;;;;5093018;28;20065;-81
2023/12/06 09:24:42;;;;;;;1999.90;999.90;;;3.70;99.90;;;;;;5095426;28;20127;-76
2023/12/06 09:27:08;;;;;;;1999.90;999.90;;;3.70;99.90;;;;;;5097600;28;20036;-76
2023/12/06 09:29:33;;;;;;;1999.90;999.90;;;3.70;99.90;;;;;;5097443;28;20040;-76
2023/12/06 09:31:59;;;;;;;1999.90;999.90;;;3.70;99.90;;;;;;5097625;28;20039;-76
2023/12/06 09:34:24;;;;;;;1999.90;999.90;;;3.70;99.90;;;;;;5097301;28;20032;-80
2023/12/06 09:36:50;;;;;;;1999.90;999.90;;;3.70;99.90;;;;;;5084851;28;20033;-75
2023/12/06 09:39:20;;;;;;;1999.90;999.90;;;3.80;99.90;;;;;;5078398;28;20068;-81
2023/12/06 09:41:46;;;;;;;1999.90;999.90;;;3.80;99.90;;;;;;5075562;28;20037;-76
2023/12/06 09:44:14;;;;;;;1999.90;999.90;;;3.80;99.90;;;;;;5077394;28;21697;-75
2023/12/06 09:46:42;;;;;;;1999.90;999.90;;;3.80;99.90;;;;;;5079957;28;20040;-74
2023/12/06 09:49:07;;;;;;;1999.90;999.90;;;3.80;99.90;;;;;;5076759;28;20132;-75
2023/12/06 09:51:33;;;;;;;1999.90;999.90;;;3.90;99.90;;;;;;5076958;28;20039;-75
2023/12/06 09:53:58;;;;;;;1999.90;999.90;;;3.90;99.90;;;;;;5076918;28;20028;-76
2023/12/06 09:56:25;;;;;;;1999.90;999.90;;;3.90;99.90;;;;;;5094134;28;20037;-76
2023/12/06 09:58:51;;;;;;;1999.90;999.90;;;3.90;99.90;;;;;;5096953;28;20520;-76
2023/12/06 10:01:17;;;;;;;1999.90;999.90;;;4.00;99.90;;;;;;5096946;28;20064;-76
2023/12/06 10:03:42;;;;;;;1999.90;999.90;;;4.00;99.90;;;;;;5096615;28;20075;-76
2023/12/06 10:06:08;;;;;;;1999.90;999.90;;;3.90;99.90;;;;;;5092371;28;20378;-74
2023/12/06 10:08:35;;;;;;;1999.90;999.90;;;3.90;99.90;;;;;;5076608;28;20494;-74
2023/12/06 10:11:06;;;;;;;1999.90;999.90;;;4.00;99.90;;;;;;5096443;28;20453;-73
2023/12/06 10:13:38;;;;;;;1999.90;999.90;;;3.90;99.90;;;;;;5096514;28;20417;-74
2023/12/06 10:16:17;;;;;;;1999.90;999.90;;;3.90;99.90;;;;;;5095902;28;20024;-74
2023/12/06 10:18:48;;;;;;;1999.90;999.90;;;3.90;99.90;;;;;;5096367;28;20033;-76
2023/12/06 10:21:16;;;;;;;1999.90;999.90;;;3.90;99.90;;;;;;5093134;28;20037;-73
2023/12/06 10:23:42;;;;;;;1999.90;999.90;;;3.90;99.90;;;;;;5076410;28;20037;-77
2023/12/06 10:26:14;;;;;;;1999.90;999.90;;;3.90;99.90;;;;;;5074274;28;20046;-76
2023/12/06 10:28:40;;;;;;;1999.90;999.90;;;4.00;99.90;;;;;;5074701;28;20064;-73
2023/12/06 10:31:07;;;;;;;1999.90;999.90;;;4.00;99.90;;;;;;5076256;28;20032;-72
2023/12/06 10:33:33;;;;;;;1999.90;999.90;;;4.00;99.90;;;;;;5075867;28;20087;-77
2023/12/06 10:36:04;;;;;;;1999.90;999.90;;;4.00;99.90;;;;;;5077461;28;20037;-76
2023/12/06 10:38:30;;;;;;;1999.90;999.90;;;4.00;99.90;;;;;;5095114;28;20037;-75
2023/12/06 10:40:58;;;;;;;1999.90;999.90;;;4.10;99.90;;;;;;5096285;28;20108;-76
2023/12/06 10:43:25;;;;;;;1999.90;999.90;;;4.10;99.90;;;;;;5094722;28;20525;-72
2023/12/06 10:45:52;;;;;;;1999.90;999.90;;;4.10;99.90;;;;;;5095572;28;20125;-72
2023/12/06 10:48:18;;;;;;;1999.90;999.90;;;4.10;99.90;;;;;;5094652;28;20091;-74
2023/12/06 10:50:45;;;;;;;1999.90;999.90;;;4.10;99.90;;;;;;5096390;28;20032;-74
2023/12/06 10:53:16;;;;;;;1999.90;999.90;;;4.10;99.90;;;;;;5096068;28;20623;-73
2023/12/06 10:55:42;;;;;;;1999.90;999.90;;;4.10;99.90;;;;;;5095451;28;20043;-73
2023/12/06 10:58:08;;;;;;;1999.90;999.90;;;4.10;99.90;;;;;;5096132;28;20032;-72
2023/12/06 11:00:34;;;;;;;1999.90;999.90;;;4.10;99.90;;;;;;5096114;28;20494;-72
2023/12/06 11:03:01;;;;;;;1999.90;999.90;;;4.10;99.90;;;;;;5096295;28;20120;-73
2023/12/06 11:05:30;;;;;;;1999.90;999.90;;;4.10;99.90;;;;;;5094291;28;20032;-73
2023/12/06 11:08:14;;;;;;;1999.90;999.90;;;4.20;99.90;;;;;;5095835;28;20040;-73
2023/12/06 11:11:10;;;;;;;1999.90;999.90;;;4.20;99.90;;;;;;5096097;28;20104;-73
2023/12/06 11:13:54;;;;;;;1999.90;999.90;;;4.20;99.90;;;;;;5093679;28;20115;-74
2023/12/06 11:16:48;;;;;;;1999.90;999.90;;;4.20;99.90;;;;;;5095535;28;20094;-72
2023/12/06 11:19:15;;;;;;;1999.90;999.90;;;4.20;99.90;;;;;;5096139;28;20033;-75
2023/12/06 11:21:41;;;;;;;1999.90;999.90;;;4.20;99.90;;;;;;5096018;28;20040;-75
2023/12/06 11:24:11;;;;;;;1999.90;999.90;;;4.20;99.90;;;;;;5095676;28;20036;-76
2023/12/06 11:26:37;;;;;;;1999.90;999.90;;;4.20;99.90;;;;;;5094526;28;20064;-77
2023/12/06 11:29:03;;;;;;;1999.90;999.90;;;4.20;99.90;;;;;;5093570;28;20144;-75
2023/12/06 11:31:37;;;;;;;1999.90;999.90;;;4.30;99.90;;;;;;5095781;28;20075;-76
2023/12/06 11:34:12;;;;;;;1999.90;999.90;;;4.30;99.90;;;;;;5095667;28;20033;-78
2023/12/06 11:36:38;;;;;;;1999.90;999.90;;;4.30;99.90;;;;;;5082898;28;20032;-77
2023/12/06 11:39:17;;;;;;;1999.90;999.90;;;4.30;99.90;;;;;;5075325;28;20501;-75
2023/12/06 11:41:49;;;;;;;1999.90;999.90;;;4.30;99.90;;;;;;5075217;28;20125;-75
2023/12/06 11:44:19;;;;;;;1999.90;999.90;;;4.30;99.90;;;;;;5073773;28;20032;-75
2023/12/06 11:46:55;;;;;;;1999.90;999.90;;;4.20;99.90;;;;;;5073406;28;20817;-75
2023/12/06 11:49:22;;;;;;;1999.90;999.90;;;4.30;99.90;;;;;;5093427;28;20029;-76
2023/12/06 11:52:01;;;;;;;1999.90;999.90;;;4.20;99.90;;;;;;5095394;28;20145;-75
2023/12/06 11:54:28;;;;;;;1999.90;999.90;;;4.20;99.90;;;;;;5095284;28;20458;-75
2023/12/06 11:57:07;;;;;;;1999.90;999.90;;;4.20;99.90;;;;;;5145965;22;20868;-72
2023/12/06 11:59:34;;;;;;;1999.90;999.90;;;4.20;99.90;;;;;;5115613;27;20090;-72
2023/12/06 12:02:00;;;;;;;1999.90;999.90;;;4.30;99.90;;;;;;5115268;27;20101;-75
2023/12/06 12:04:26;;;;;;;1999.90;999.90;;;4.20;99.90;;;;;;5115593;27;20028;-76